• Join FlightAware (Why Join?)
  • Login
  • US Flag 
12:28AM EST


 

Airport Tracker/Info


-or-


 

Live Flight TrackerFlight Track Log ✈ HPN8 ✈ 08-May-2013 ✈ KIAD - KBED

Flight Track Log - Related Links

Times and Time Zones

All times are in EDT time to prevent confusion due to time zone crossing. See the HPN8 flight status page for this flight to view local times or setup timezone preferences in your user account.

Time Position Orientation Groundspeed Altitude Reporting Facility
EDT Latitude Longitude Course Direction KTS MPH feet Rate Location/Type
07:20PM 38.9500 -77.5167 303° West 188 216 2,700  Level Potomac TRACON
07:21PM 38.9833 -77.5833 303° West 203 234 5,300 2,100 Climbing Potomac TRACON
07:22PM 39.0333 -77.5833 360° North 241 277 7,000 1,560 Climbing Potomac TRACON
07:23PM 39.1333 -77.5500 14° North 287 330 8,700 1,020 Climbing Potomac TRACON
07:24PM 39.1667 -77.4667 63° Northeast 291 335 9,200 780 Climbing Potomac TRACON
07:26PM 39.2456 -77.2692 63° Northeast 299 344 11,300 1,320 Climbing Washington Center
07:27PM 39.2781 -77.1869 63° Northeast 279 321 13,700 2,520 Climbing Washington Center
07:28PM 39.3061 -77.1150 63° Northeast 246 283 16,400 1,620 Climbing Washington Center
07:29PM 39.3319 -77.0378 67° East 227 261 17,000 300 Climbing Washington Center
07:30PM 39.3247 -76.9331 95° East 251 289 17,000  Level Washington Center
07:31PM 39.3094 -76.8228 100° East 282 325 17,000 120 Level Washington Center
07:32PM 39.2939 -76.7072 100° East 307 353 17,300 960 Climbing Washington Center
07:33PM 39.2822 -76.6025 98° East 312 359 19,000 840 Climbing Washington Center
07:34PM 39.2664 -76.4950 101° East 312 359 19,000 120 Level Washington Center
07:35PM 39.2506 -76.3661 99° East 317 365 19,300 960 Climbing Washington Center
07:36PM 39.2386 -76.2750 100° East 304 350 21,000 780 Climbing Washington Center
07:37PM 39.2289 -76.1622 96° East 304 350 21,000 240 Level Washington Center
07:38PM 39.2125 -76.0444 100° East 316 364 21,500 480 Climbing Washington Center
07:39PM 39.1983 -75.9292 99° East 321 369 22,000 240 Climbing Washington Center
07:40PM 39.2361 -75.8167 67° East 327 376 22,000  Level Washington Center
07:41PM 39.3133 -75.7231 43° Northeast 323 372 22,000 60 Level Washington Center
07:42PM 39.3864 -75.6319 44° Northeast 347 399 22,200 600 Climbing Washington Center
07:43PM 39.4531 -75.5431 46° Northeast 353 406 23,200 900 Climbing Washington Center
07:44PM 39.5197 -75.4569 45° Northeast 338 389 24,000 360 Climbing Washington Center
07:45PM 39.5883 -75.3653 46° Northeast 338 389 24,000 1,440 Level Washington Center
07:48PM 39.7422 -75.1553 46° Northeast 311 358 29,000 1,440 Climbing New York Center
07:49PM 39.8039 -75.0672 48° Northeast 311 358 29,000  Level New York Center
07:50PM 39.8744 -74.9608 49° Northeast 349 402 29,000  Level New York Center
07:51PM 39.9381 -74.8725 47° Northeast 367 422 29,000  Level New York Center
07:52PM 40.0144 -74.7686 46° Northeast 390 449 29,000  Level New York Center
07:53PM 40.0767 -74.6608 53° Northeast 379 436 29,000  Level New York Center
07:54PM 40.1322 -74.5528 56° Northeast 366 421 29,000  Level New York Center
07:55PM 40.1967 -74.4258 56° Northeast 366 421 29,000 -540 Level New York Center
07:56PM 40.2564 -74.3119 55° Northeast 366 421 28,000 -1,440 Descending New York Center
07:57PM 40.3203 -74.1956 54° Northeast 373 429 26,200 -1,020 Descending New York Center
07:59PM 40.4328 -73.9886 54° Northeast 376 433 25,000 -420 Descending Boston Center
08:00PM 40.4906 -73.8836 54° Northeast 365 420 25,000 -180 Level Boston Center
08:01PM 40.5419 -73.7783 57° Northeast 347 399 24,700 -1,020 Descending Boston Center
08:02PM 40.6058 -73.6564 55° Northeast 357 411 23,000 -900 Descending Boston Center
08:03PM 40.6567 -73.5617 55° Northeast 362 417 23,000  Level Boston Center
08:04PM 40.7078 -73.4586 57° Northeast 355 409 23,000  Level Boston Center
08:05PM 40.7586 -73.3581 56° Northeast 341 392 23,000  Level Boston Center
08:06PM 40.8281 -73.2603 47° Northeast 328 377 23,000 -660 Level Boston Center
08:07PM 40.9017 -73.1789 40° Northeast 328 377 21,700 -1,560 Descending Boston Center
08:08PM 40.9772 -73.0917 41° Northeast 346 398 19,900 -1,860 Descending Boston Center
08:09PM 41.0506 -73.0042 42° Northeast 352 405 18,000 -1,800 Descending Boston Center
08:10PM 41.1261 -72.9194 40° Northeast 352 405 16,300 -1,500 Descending Boston Center
08:11PM 41.1931 -72.8344 44° Northeast 345 397 15,000 -660 Descending Boston Center
08:12PM 41.2558 -72.7603 42° Northeast 319 367 15,000  Level Boston Center
08:13PM 41.3183 -72.7000 36° Northeast 283 326 15,000  Level Boston Center
08:14PM 41.3853 -72.6642 22° Northeast 271 312 15,000  Level Boston Center
08:15PM 41.4644 -72.6283 19° North 271 312 15,000  Level Boston Center
08:16PM 41.5208 -72.6036 18° North 281 323 15,000  Level Boston Center
08:16PM 41.5333 -72.5981 18° North 277 319 15,000 -1,080 Level Boston Center
08:17PM 41.6064 -72.5650 19° North 294 338 13,800 -1,440 Descending Boston Center
08:18PM 41.6792 -72.5039 32° Northeast 307 353 12,400 -1,440 Descending Boston Center
08:19PM 41.7461 -72.4344 38° Northeast 307 353 11,000 -960 Descending Boston Center
08:20PM 41.8106 -72.3622 40° Northeast 282 325 10,500 -840 Descending Boston Center
08:21PM 41.8647 -72.3036 39° Northeast 291 335 9,400 -1,320 Descending Boston Center
08:22PM 41.9228 -72.2086 51° Northeast 282 325 7,800 -1,500 Descending Boston Center
08:23PM 41.9728 -72.1272 50° Northeast 271 312 6,300 -1,560 Descending Boston Center
08:24PM 42.0164 -72.0600 49° Northeast 257 296 5,000 -720 Descending Boston Center
08:25PM 42.0514 -71.9983 53° Northeast 228 262 5,000  Level Boston Center
08:25PM 42.0597 -71.9869 45° Northeast 234 269 5,000  Level Boston Center
08:26PM 42.0886 -71.9339 54° Northeast 209 241 5,000  Level Boston Center
08:27PM 42.1386 -71.8886 34° Northeast 220 253 5,000  Level Boston Center
08:28PM 42.2008 -71.8431 28° Northeast 210 242 5,100  Climbing Boston Center
08:29PM 42.2589 -71.8089 24° Northeast 217 250 5,100  Level Boston Center
08:30PM 42.3150 -71.7747 24° Northeast 217 250 5,100 -480 Level Boston Center
08:32PM 42.4167 -71.6333 46° Northeast 238 274 3,600 -600 Descending KA90
08:33PM 42.4500 -71.5667 56° Northeast 225 259 3,100 -660 Descending KA90
08:34PM 42.4833 -71.5167 48° Northeast 186 214 2,400 -540 Descending KA90
08:35PM 42.4833 -71.4500 90° East 170 196 2,100 -300 Descending KA90
08:36PM 42.4833 -71.4167 90° East 102 117 1,900 -360 Descending KA90
08:37PM 42.4833 -71.3833 90° East 85 98 1,500 -480 Descending KA90
08:38PM 42.4833 -71.3500 90° East 99 114 1,000 -480 Descending KA90
08:39PM 42.4667 -71.3167 124° Southeast 91 105 600 -420 Descending KA90
08:41PM 42.4667 -71.2833 66° East  Level FlightAware Approximate
08:48PM 42.4699 -71.2890 66° East  Level Estimated
08:49PM 42.4667 -71.2833 66° East  Level FlightAware Approximate
08:50PM 42.4699 -71.2890 66° East  Level Estimated
08:51PM 42.4667 -71.2833 66° East  Level FlightAware Approximate
08:52PM 42.4699 -71.2890 66° East  Level Estimated
08:53PM 42.4667 -71.2833 66° East  Level FlightAware Approximate
08:54PM 42.4699 -71.2890 66° East  Level Estimated